createdAt,value
2022-09-12T00:47:47.393Z,99.70
2022-09-12T00:50:16.126Z,99.70
2022-09-12T00:52:45.907Z,99.80
2022-09-12T00:55:19.756Z,99.80
2022-09-12T00:57:57.712Z,99.80
2022-09-12T01:00:27.017Z,99.90
2022-09-12T01:03:01.041Z,99.90
2022-09-12T01:05:29.701Z,99.90
2022-09-12T01:07:57.690Z,99.90
2022-09-12T01:10:25.175Z,99.90
2022-09-12T01:12:52.045Z,99.90
2022-09-12T01:15:18.920Z,99.90
2022-09-12T01:18:10.767Z,99.90
2022-09-12T01:20:47.256Z,99.90
2022-09-12T01:23:26.353Z,99.90
2022-09-12T01:26:04.040Z,99.90
2022-09-12T01:28:37.053Z,99.90
2022-09-12T01:31:39.233Z,99.90
2022-09-12T01:34:28.125Z,99.90
2022-09-12T01:37:15.118Z,99.90
2022-09-12T01:39:56.424Z,99.90
2022-09-12T01:42:49.854Z,99.90
2022-09-12T01:45:32.441Z,99.90
2022-09-12T01:48:22.568Z,99.90
2022-09-12T01:51:11.182Z,99.90
2022-09-12T01:53:42.612Z,99.90
2022-09-12T01:56:26.484Z,99.90
2022-09-12T01:59:03.910Z,99.90
2022-09-12T02:01:39.658Z,99.90
2022-09-12T02:04:12.855Z,99.90
2022-09-12T02:07:01.700Z,99.90
2022-09-12T02:09:38.051Z,99.90
2022-09-12T02:12:08.758Z,99.90
2022-09-12T02:14:40.816Z,99.90
2022-09-12T02:17:21.051Z,99.90
2022-09-12T02:19:54.336Z,99.90
2022-09-12T02:22:25.152Z,99.90
2022-09-12T02:24:57.494Z,99.90
2022-09-12T02:27:26.723Z,99.90
2022-09-12T02:29:54.059Z,99.90
2022-09-12T02:32:38.224Z,99.90
2022-09-12T02:35:18.898Z,99.90
2022-09-12T02:37:59.752Z,99.90
2022-09-12T02:40:26.809Z,99.90
2022-09-12T02:42:53.711Z,99.90
2022-09-12T02:45:22.816Z,99.90
2022-09-12T02:47:57.530Z,99.90
2022-09-12T02:50:24.566Z,99.90
2022-09-12T02:52:54.712Z,99.90
2022-09-12T02:55:24.684Z,99.90
2022-09-12T02:57:51.519Z,99.90
2022-09-12T03:00:18.473Z,99.90
2022-09-12T03:03:06.902Z,99.90
2022-09-12T03:05:59.450Z,99.90
2022-09-12T03:08:45.313Z,99.90
2022-09-12T03:11:26.635Z,99.90
2022-09-12T03:14:22.662Z,99.90
2022-09-12T03:17:12.235Z,99.90
2022-09-12T03:20:09.574Z,99.90
2022-09-12T03:22:56.585Z,99.90
2022-09-12T03:25:36.550Z,99.90
2022-09-12T03:28:13.169Z,99.90
2022-09-12T03:30:45.867Z,99.90
2022-09-12T03:33:15.329Z,99.90
2022-09-12T03:35:42.454Z,99.90
2022-09-12T03:38:10.116Z,99.90
2022-09-12T03:40:38.411Z,99.90
2022-09-12T03:43:06.914Z,99.90
2022-09-12T03:45:34.725Z,99.90
2022-09-12T03:48:02.038Z,99.90
2022-09-12T03:50:29.062Z,99.90
2022-09-12T03:52:56.287Z,99.90
2022-09-12T03:55:23.338Z,99.90
2022-09-12T03:57:54.015Z,99.90
2022-09-12T04:00:21.219Z,99.90
2022-09-12T04:02:48.271Z,99.90
2022-09-12T04:05:15.418Z,99.90
2022-09-12T04:07:42.281Z,99.90
2022-09-12T04:10:09.824Z,99.90
2022-09-12T04:12:36.893Z,99.90
2022-09-12T04:15:03.940Z,99.90
2022-09-12T04:17:30.917Z,99.90
2022-09-12T04:19:57.830Z,99.90
2022-09-12T04:22:24.782Z,99.90
2022-09-12T04:24:51.821Z,99.90
2022-09-12T04:27:18.767Z,99.90
2022-09-12T04:29:45.611Z,99.90
2022-09-12T04:32:12.958Z,99.90
2022-09-12T04:34:39.808Z,99.90
2022-09-12T04:37:06.685Z,99.90
2022-09-12T04:39:33.509Z,99.90
2022-09-12T04:42:00.364Z,99.90
2022-09-12T04:44:27.272Z,99.90
2022-09-12T04:46:54.293Z,99.90
2022-09-12T04:49:21.148Z,99.90
2022-09-12T04:51:48.116Z,99.90
2022-09-12T04:54:18.544Z,99.90
2022-09-12T04:56:48.821Z,99.90
2022-09-12T04:59:17.351Z,99.90
2022-09-12T05:01:44.610Z,99.90
2022-09-12T05:04:15.234Z,99.90
2022-09-12T05:06:42.919Z,99.90
2022-09-12T05:09:12.718Z,99.90
2022-09-12T05:12:03.349Z,99.90
2022-09-12T05:14:28.644Z,99.90
2022-09-12T05:16:59.787Z,99.90
2022-09-12T05:19:27.441Z,99.90
2022-09-12T05:21:54.392Z,99.90
2022-09-12T05:24:21.253Z,99.90
2022-09-12T05:26:48.424Z,99.90
2022-09-12T05:29:15.520Z,99.90
2022-09-12T05:35:41.162Z,99.90
2022-09-12T05:38:08.519Z,99.90
2022-09-12T05:40:35.803Z,99.90
2022-09-12T05:43:02.720Z,99.90
2022-09-12T05:45:30.159Z,99.90
2022-09-12T05:47:57.044Z,99.90
2022-09-12T05:50:23.972Z,99.90
2022-09-12T05:52:50.920Z,99.90
2022-09-12T05:55:17.875Z,99.90
2022-09-12T05:57:46.256Z,99.90
2022-09-12T06:00:15.125Z,99.90
2022-09-12T06:02:42.153Z,99.90
2022-09-12T06:05:09.339Z,99.90
2022-09-12T06:07:36.316Z,99.90
2022-09-12T06:10:05.379Z,99.90
2022-09-12T06:12:33.048Z,99.90
2022-09-12T06:15:00.121Z,99.90
2022-09-12T06:17:27.450Z,99.90
2022-09-12T06:19:55.828Z,99.90
2022-09-12T06:22:22.877Z,99.90
2022-09-12T06:24:51.338Z,99.90
2022-09-12T06:27:19.756Z,99.90
2022-09-12T06:29:46.670Z,99.90
2022-09-12T06:32:14.122Z,99.90
2022-09-12T06:34:41.087Z,99.90
2022-09-12T06:37:08.013Z,99.90
2022-09-12T06:39:36.603Z,99.90
2022-09-12T06:42:04.219Z,99.90
2022-09-12T06:44:31.841Z,99.90
2022-09-12T06:46:59.403Z,99.90
2022-09-12T06:49:26.434Z,99.90
2022-09-12T06:51:56.237Z,99.90
2022-09-12T06:54:23.627Z,99.90
2022-09-12T06:56:50.693Z,99.90
2022-09-12T06:59:17.733Z,99.90
2022-09-12T07:01:44.754Z,99.90
2022-09-12T07:04:11.793Z,99.90
2022-09-12T07:06:41.498Z,99.90
2022-09-12T07:09:13.057Z,99.90
2022-09-12T07:11:41.606Z,99.90
2022-09-12T07:14:11.274Z,99.90
2022-09-12T07:16:38.679Z,99.90
2022-09-12T07:19:08.138Z,99.90
2022-09-12T07:21:42.179Z,99.90
2022-09-12T07:24:10.450Z,99.90
2022-09-12T07:26:39.662Z,99.90
2022-09-12T07:29:35.255Z,99.90
2022-09-12T07:31:54.134Z,99.90
2022-09-12T07:34:21.309Z,99.90
2022-09-12T07:36:48.198Z,99.90
2022-09-12T07:39:15.168Z,99.90
2022-09-12T07:41:42.064Z,99.90
2022-09-12T07:44:09.096Z,99.90
2022-09-12T07:46:36.036Z,99.90
2022-09-12T07:49:03.476Z,99.90
2022-09-12T07:51:31.816Z,99.90
2022-09-12T07:53:58.822Z,99.90
2022-09-12T07:56:30.224Z,99.90
2022-09-12T07:58:59.123Z,99.90
2022-09-12T08:01:26.539Z,99.80
2022-09-12T08:03:56.253Z,99.60
2022-09-12T08:06:26.980Z,99.70
2022-09-12T08:08:57.330Z,99.70
2022-09-12T08:11:25.357Z,99.50
2022-09-12T08:13:55.648Z,99.60
2022-09-12T08:16:25.677Z,99.40
2022-09-12T08:18:52.699Z,99.20
2022-09-12T08:21:21.035Z,99.10
2022-09-12T08:23:52.682Z,99.00
2022-09-12T08:26:19.927Z,98.90
2022-09-12T08:28:46.890Z,98.80
2022-09-12T08:31:16.884Z,98.90
2022-09-12T08:33:44.399Z,98.40
2022-09-12T08:36:13.100Z,98.40
2022-09-12T08:38:43.615Z,98.20
2022-09-12T08:41:30.526Z,98.10
2022-09-12T08:44:15.608Z,97.90
2022-09-12T08:47:03.167Z,97.40
2022-09-12T08:49:33.962Z,97.30
2022-09-12T08:52:07.839Z,97.40
2022-09-12T08:54:35.133Z,97.20
2022-09-12T08:57:04.729Z,97.00
2022-09-12T08:59:46.733Z,96.60
2022-09-12T09:02:28.832Z,96.00
2022-09-12T09:05:04.883Z,96.20
2022-09-12T09:07:54.326Z,96.10
2022-09-12T09:10:40.230Z,96.10
2022-09-12T09:13:46.984Z,96.00
2022-09-12T09:16:22.947Z,96.00
2022-09-12T09:18:52.081Z,95.90
2022-09-12T09:21:39.917Z,95.70
2022-09-12T09:24:12.435Z,94.70
2022-09-12T09:26:56.078Z,95.30
2022-09-12T09:29:42.091Z,95.00
2022-09-12T09:32:19.583Z,94.20
2022-09-12T09:34:46.496Z,93.90
2022-09-12T09:37:19.103Z,94.30
2022-09-12T09:40:19.524Z,93.90
2022-09-12T09:43:04.957Z,94.00
2022-09-12T09:45:32.172Z,94.10
2022-09-12T09:48:27.690Z,93.80
2022-09-12T09:50:54.733Z,91.50
2022-09-12T09:53:37.581Z,92.70
2022-09-12T09:56:24.704Z,91.50
2022-09-12T09:58:54.872Z,85.90
2022-09-12T10:01:22.444Z,90.30
2022-09-12T10:03:55.116Z,89.50
2022-09-12T10:06:22.330Z,85.60
2022-09-12T10:08:50.695Z,86.30
2022-09-12T10:11:28.111Z,85.70
2022-09-12T10:13:57.619Z,82.00
2022-09-12T10:16:48.794Z,80.30
2022-09-12T10:19:49.853Z,78.40
2022-09-12T10:22:29.312Z,73.60
2022-09-12T10:25:01.777Z,74.90
2022-09-12T10:27:32.105Z,71.80
2022-09-12T10:30:06.948Z,69.80
2022-09-12T10:32:39.431Z,68.00
2022-09-12T10:35:20.101Z,66.70
2022-09-12T10:38:06.166Z,64.80
2022-09-12T10:40:40.403Z,64.00
2022-09-12T10:43:38.436Z,64.70
2022-09-12T10:46:17.329Z,61.30
2022-09-12T10:48:47.259Z,61.20
2022-09-12T10:51:29.930Z,60.90
2022-09-12T10:54:03.696Z,57.80
2022-09-12T10:56:32.994Z,57.30
2022-09-12T10:59:21.174Z,58.50
2022-09-12T11:02:05.091Z,58.50
2022-09-12T11:04:38.868Z,56.40
2022-09-12T11:07:24.702Z,54.70
2022-09-12T11:10:13.572Z,53.50
2022-09-12T11:12:58.318Z,53.50
2022-09-12T11:15:43.137Z,55.30
2022-09-12T11:18:37.741Z,53.30
2022-09-12T11:21:13.478Z,53.50
2022-09-12T11:23:40.635Z,54.40
2022-09-12T11:26:16.487Z,53.80
2022-09-12T11:29:04.398Z,51.70
2022-09-12T11:31:46.587Z,51.00
2022-09-12T11:34:19.830Z,52.80
2022-09-12T11:37:10.457Z,52.40
2022-09-12T11:39:43.191Z,52.20
2022-09-12T11:42:18.026Z,50.00
2022-09-12T11:44:56.278Z,50.90
2022-09-12T11:47:25.343Z,51.10
2022-09-12T11:49:54.886Z,51.60
2022-09-12T11:52:26.070Z,50.60
2022-09-12T11:55:17.277Z,49.80
2022-09-12T11:58:02.758Z,49.10
2022-09-12T12:00:38.035Z,47.80
2022-09-12T12:03:10.689Z,47.30
2022-09-12T12:05:42.883Z,47.40
2022-09-12T12:08:11.071Z,47.00
2022-09-12T12:10:42.334Z,47.80
2022-09-12T12:13:26.850Z,47.70
2022-09-12T12:15:57.805Z,47.10
2022-09-12T12:18:26.925Z,47.90
2022-09-12T12:20:55.913Z,48.50
2022-09-12T12:23:29.900Z,49.70
2022-09-12T12:26:00.050Z,50.10
2022-09-12T12:28:53.877Z,50.40
2022-09-12T12:31:21.119Z,49.40
2022-09-12T12:33:48.273Z,50.00
2022-09-12T12:36:44.829Z,48.30
2022-09-12T12:39:33.493Z,45.40
2022-09-12T12:42:03.200Z,46.70
2022-09-12T12:44:45.126Z,47.40
2022-09-12T12:47:22.131Z,47.00
2022-09-12T12:50:23.946Z,47.00
2022-09-12T12:52:55.617Z,46.20
2022-09-12T12:55:39.103Z,47.70
2022-09-12T12:58:18.449Z,47.60
2022-09-12T13:00:47.070Z,47.10
2022-09-12T13:03:41.925Z,47.30
2022-09-12T13:06:35.302Z,46.60
2022-09-12T13:09:06.661Z,45.40
2022-09-12T13:11:35.232Z,45.20
2022-09-12T13:14:07.047Z,45.50
2022-09-12T13:16:39.378Z,45.50
2022-09-12T13:19:21.992Z,45.70
2022-09-12T13:22:21.817Z,45.70
2022-09-12T13:24:52.276Z,46.70
2022-09-12T13:27:20.205Z,46.50
2022-09-12T13:29:47.414Z,46.00
2022-09-12T13:32:15.505Z,45.80
2022-09-12T13:35:14.063Z,46.00
2022-09-12T13:37:51.597Z,45.70
2022-09-12T13:40:39.420Z,44.50
2022-09-12T13:43:17.386Z,44.80
2022-09-12T13:45:47.050Z,44.40
2022-09-12T13:48:20.048Z,44.50
2022-09-12T13:51:00.674Z,44.50
2022-09-12T13:53:42.608Z,44.70
2022-09-12T13:56:17.433Z,44.50
2022-09-12T13:58:57.266Z,43.30
2022-09-12T14:01:36.865Z,43.30
2022-09-12T14:04:35.822Z,44.70
2022-09-12T14:07:13.997Z,46.40
2022-09-12T14:09:47.137Z,46.70
2022-09-12T14:12:25.177Z,47.20
2022-09-12T14:14:56.273Z,48.40
2022-09-12T14:17:51.767Z,48.00
2022-09-12T14:20:20.784Z,48.40
2022-09-12T14:22:51.414Z,48.80
2022-09-12T14:25:21.557Z,49.00
2022-09-12T14:27:59.769Z,49.60
2022-09-12T14:30:32.570Z,49.70
2022-09-12T14:33:13.535Z,49.90
2022-09-12T14:35:52.231Z,50.40
2022-09-12T14:38:34.161Z,50.40
2022-09-12T14:41:06.070Z,50.60
2022-09-12T14:43:44.215Z,50.90
2022-09-12T14:46:34.131Z,51.10
2022-09-12T14:49:18.347Z,51.50
2022-09-12T14:51:51.510Z,52.10
2022-09-12T14:54:27.772Z,52.10
2022-09-12T14:56:57.340Z,52.20
2022-09-12T14:59:34.675Z,51.90
2022-09-12T15:02:20.175Z,52.30
2022-09-12T15:04:53.560Z,53.00
2022-09-12T15:07:41.196Z,53.20
2022-09-12T15:10:22.994Z,54.20
2022-09-12T15:12:49.978Z,53.80
2022-09-12T15:15:19.766Z,54.00
2022-09-12T15:17:46.960Z,54.50
2022-09-12T15:20:14.344Z,54.50
2022-09-12T15:22:42.477Z,54.70
2022-09-12T15:25:12.487Z,55.00
2022-09-12T15:27:41.054Z,55.40
2022-09-12T15:30:12.797Z,55.70
2022-09-12T15:32:41.045Z,56.00
2022-09-12T15:35:23.409Z,56.10
2022-09-12T15:37:54.203Z,56.00
2022-09-12T15:40:21.336Z,55.00
2022-09-12T15:42:59.272Z,54.30
2022-09-12T15:45:28.569Z,54.40
2022-09-12T15:47:56.348Z,53.90
2022-09-12T15:50:26.629Z,54.00
2022-09-12T15:52:53.942Z,54.40
2022-09-12T15:55:28.049Z,54.80
2022-09-12T15:57:55.705Z,55.20
2022-09-12T16:00:22.748Z,55.40
2022-09-12T16:02:51.848Z,55.70
2022-09-12T16:05:25.243Z,56.30
2022-09-12T16:07:55.888Z,56.90
2022-09-12T16:10:27.522Z,57.10
2022-09-12T16:12:55.483Z,56.80
2022-09-12T16:15:24.688Z,56.20
2022-09-12T16:17:52.573Z,55.90
2022-09-12T16:20:20.134Z,55.80
2022-09-12T16:22:47.215Z,55.50
2022-09-12T16:25:14.226Z,55.30
2022-09-12T16:27:41.361Z,55.50
2022-09-12T16:30:09.288Z,56.10
2022-09-12T16:32:36.458Z,56.90
2022-09-12T16:35:04.201Z,57.50
2022-09-12T16:37:32.420Z,58.10
2022-09-12T16:39:59.498Z,58.40
2022-09-12T16:42:26.596Z,58.60
2022-09-12T16:44:53.490Z,59.00
2022-09-12T16:47:20.398Z,59.30
2022-09-12T16:49:47.376Z,59.60
2022-09-12T16:52:16.694Z,59.90
2022-09-12T16:54:47.142Z,60.30
2022-09-12T16:57:14.128Z,60.60
2022-09-12T16:59:41.070Z,60.80
2022-09-12T17:02:12.281Z,61.00
2022-09-12T17:04:39.651Z,61.30
2022-09-12T17:07:06.640Z,61.60
2022-09-12T17:09:33.611Z,61.50
2022-09-12T17:12:00.864Z,62.00
2022-09-12T17:14:27.776Z,62.20
2022-09-12T17:16:54.723Z,62.30
2022-09-12T17:19:28.055Z,62.30
2022-09-12T17:21:55.900Z,62.60
2022-09-12T17:24:23.400Z,63.00
2022-09-12T17:26:54.337Z,63.30
2022-09-12T17:29:21.391Z,63.50
2022-09-12T17:31:48.856Z,63.80
2022-09-12T17:34:16.459Z,64.80
2022-09-12T17:36:44.988Z,64.60
2022-09-12T17:39:13.702Z,64.90
2022-09-12T17:41:42.733Z,65.30
2022-09-12T17:44:12.551Z,65.60
2022-09-12T17:46:39.999Z,65.90
2022-09-12T17:49:11.503Z,66.30
2022-09-12T17:51:39.590Z,66.80
2022-09-12T17:54:16.107Z,67.30
2022-09-12T17:56:45.527Z,68.00
2022-09-12T17:59:22.989Z,68.20
2022-09-12T18:02:08.639Z,68.80
2022-09-12T18:04:35.795Z,69.00
2022-09-12T18:07:02.742Z,69.20
2022-09-12T18:09:30.840Z,69.60
2022-09-12T18:11:57.839Z,70.10
2022-09-12T18:14:27.716Z,70.40
2022-09-12T18:16:57.246Z,70.60
2022-09-12T18:19:24.786Z,70.80
2022-09-12T18:21:51.708Z,71.60
2022-09-12T18:24:18.704Z,71.80
2022-09-12T18:26:46.188Z,72.40
2022-09-12T18:29:17.216Z,72.80
2022-09-12T18:31:46.094Z,73.50
2022-09-12T18:34:13.818Z,73.70
2022-09-12T18:36:42.666Z,74.00
2022-09-12T18:39:10.361Z,74.50
2022-09-12T18:41:38.229Z,74.90
2022-09-12T18:44:06.138Z,75.30
2022-09-12T18:46:35.170Z,76.10
2022-09-12T18:49:02.414Z,76.60
2022-09-12T18:51:33.018Z,76.70
2022-09-12T18:54:06.371Z,77.10
2022-09-12T18:56:35.962Z,77.40
2022-09-12T18:59:05.132Z,77.60
2022-09-12T19:01:37.753Z,78.00
2022-09-12T19:04:06.644Z,78.40
2022-09-12T19:06:36.437Z,79.30
2022-09-12T19:09:08.016Z,78.90
2022-09-12T19:11:37.499Z,79.30
2022-09-12T19:14:05.659Z,79.80
2022-09-12T19:16:32.947Z,79.80
2022-09-12T19:19:01.162Z,80.10
2022-09-12T19:21:30.369Z,80.10
2022-09-12T19:24:00.279Z,80.20
2022-09-12T19:26:27.946Z,80.40
2022-09-12T19:28:57.255Z,80.50
2022-09-12T19:31:25.932Z,80.80
2022-09-12T19:33:53.973Z,81.00
2022-09-12T19:36:44.495Z,81.40
2022-09-12T19:39:12.979Z,81.60
2022-09-12T19:41:39.958Z,81.50
2022-09-12T19:44:07.065Z,81.70
2022-09-12T19:46:34.123Z,82.10
2022-09-12T19:49:01.629Z,82.60
2022-09-12T19:51:29.095Z,82.90
2022-09-12T19:53:56.282Z,83.20
2022-09-12T19:56:23.588Z,83.80
2022-09-12T19:58:55.323Z,84.10
2022-09-12T20:01:28.071Z,84.20
2022-09-12T20:03:56.445Z,84.50
2022-09-12T20:06:23.430Z,84.50
2022-09-12T20:08:50.716Z,84.60
2022-09-12T20:11:20.061Z,84.50
2022-09-12T20:13:47.492Z,85.30
2022-09-12T20:16:20.586Z,85.60
2022-09-12T20:18:49.571Z,86.10
2022-09-12T20:21:19.420Z,87.20
2022-09-12T20:23:47.549Z,87.70
2022-09-12T20:26:15.115Z,88.90
2022-09-12T20:28:42.622Z,89.50
2022-09-12T20:31:15.312Z,89.80
2022-09-12T20:33:42.620Z,90.10
2022-09-12T20:36:15.994Z,90.40
2022-09-12T20:38:57.840Z,90.80
2022-09-12T20:41:26.634Z,91.00
2022-09-12T20:43:55.525Z,91.00
2022-09-12T20:46:27.424Z,91.40
2022-09-12T20:48:54.621Z,91.60
2022-09-12T20:51:22.452Z,91.60
2022-09-12T20:53:54.428Z,91.70
2022-09-12T20:56:22.523Z,92.00
2022-09-12T20:58:49.707Z,92.00
2022-09-12T21:01:17.428Z,92.00
2022-09-12T21:03:45.530Z,92.30
2022-09-12T21:06:14.470Z,92.40
2022-09-12T21:08:41.414Z,92.60
2022-09-12T21:11:11.813Z,92.60
2022-09-12T21:13:39.215Z,92.70
2022-09-12T21:16:09.943Z,92.70
2022-09-12T21:18:38.159Z,92.90
2022-09-12T21:21:06.128Z,92.90
2022-09-12T21:23:33.859Z,93.00
2022-09-12T21:26:01.682Z,93.50
2022-09-12T21:28:28.706Z,93.40
2022-09-12T21:30:56.509Z,93.40
2022-09-12T21:33:23.955Z,93.40
2022-09-12T21:35:51.705Z,93.50
2022-09-12T21:38:19.905Z,93.70
2022-09-12T21:40:47.824Z,93.80
2022-09-12T21:43:15.461Z,94.00
2022-09-12T21:45:45.394Z,94.50
2022-09-12T21:48:12.892Z,94.70
2022-09-12T21:50:39.752Z,94.80
2022-09-12T21:53:09.737Z,95.00
2022-09-12T21:55:36.700Z,95.40
2022-09-12T21:58:03.829Z,95.50
